Time;durP1;ratioP1;P1;durP2;ratioP2;P2;SDS_P1;SDS_P2;PMS_P1;PMS_P2;Temp;Humidity;BMP_temperature;BMP_pressure;BME280_temperature;BME280_humidity;BME280_pressure;Samples;Min_cycle;Max_cycle;Signal;HPM_P1;HPM_P2
2023/02/02 00:03:37;;;;;;;5.93;0.75;;;;;;;9.02;63.64;100686.34;10260098;28;20058;-60
2023/02/02 00:08:38;;;;;;;1.95;0.80;;;;;;;8.98;63.85;100695.69;10263223;28;20051;-60
2023/02/02 00:13:39;;;;;;;9.18;1.13;;;;;;;9.04;63.59;100695.91;10258101;28;20074;-60
2023/02/02 00:18:41;;;;;;;4.35;0.77;;;;;;;9.03;63.73;100693.41;10265791;28;20145;-60
2023/02/02 00:23:42;;;;;;;5.30;1.25;;;;;;;9.04;63.48;100692.38;10261932;28;20730;-60
2023/02/02 00:28:43;;;;;;;5.53;1.45;;;;;;;9.08;63.99;100691.06;10264436;28;20130;-60
2023/02/02 00:33:47;;;;;;;5.35;0.60;;;;;;;9.07;63.55;100686.72;10263033;28;20122;-59
2023/02/02 00:38:49;;;;;;;4.88;0.90;;;;;;;9.08;63.85;100699.97;10265037;28;20173;-61
2023/02/02 00:45:14;;;;;;;5.50;0.90;;;;;;;9.08;63.39;100697.28;10259767;28;20461;-60
2023/02/02 00:49:12;;;;;;;7.72;1.52;;;;;;;9.13;63.30;100716.41;10261478;28;20050;-60
2023/02/02 00:54:13;;;;;;;11.48;1.17;;;;;;;9.12;63.42;100719.25;10257831;28;20633;-60
2023/02/02 00:59:14;;;;;;;5.70;0.80;;;;;;;9.31;62.96;100727.09;10260010;28;20531;-60
2023/02/02 01:04:16;;;;;;;5.45;1.08;;;;;;;9.20;63.13;100732.75;10260282;28;20126;-59
2023/02/02 01:09:17;;;;;;;8.13;1.10;;;;;;;9.24;63.13;100738.59;10259037;28;20054;-60
2023/02/02 01:14:18;;;;;;;5.25;0.90;;;;;;;9.30;62.93;100741.53;10258055;28;20142;-59
2023/02/02 01:19:20;;;;;;;9.13;0.85;;;;;;;9.28;63.65;100740.84;10260421;28;20042;-59
2023/02/02 01:24:21;;;;;;;7.50;1.17;;;;;;;9.19;64.24;100747.13;10263001;28;20146;-58
2023/02/02 01:29:23;;;;;;;7.13;1.10;;;;;;;9.03;65.03;100755.06;10260907;28;20154;-60
2023/02/02 01:34:24;;;;;;;3.53;1.00;;;;;;;8.79;66.23;100751.19;10258979;28;20142;-59
2023/02/02 01:39:25;;;;;;;4.10;1.00;;;;;;;8.74;66.91;100769.56;10256366;28;20078;-60
2023/02/02 01:45:24;;;;;;;11.82;1.90;;;;;;;8.71;67.24;100761.84;10256068;28;20075;-60
2023/02/02 01:50:28;;;;;;;;;;;;;;;8.70;67.50;100770.88;10081977;29;20483;-59
2023/02/02 01:55:31;;;;;;;2.63;0.70;;;;;;;8.77;67.30;100760.38;10214460;28;20330;-59
2023/02/02 02:00:33;;;;;;;5.15;0.85;;;;;;;8.85;67.34;100763.97;10260387;28;20146;-62
2023/02/02 02:05:57;;;;;;;3.88;1.00;;;;;;;9.04;66.60;100757.56;10256035;28;20138;-66
2023/02/02 02:10:59;;;;;;;6.10;1.48;;;;;;;9.06;66.57;100747.56;10264645;28;20051;-64
2023/02/02 02:16:17;;;;;;;9.68;0.90;;;;;;;9.20;66.31;100750.66;10255802;28;20078;-64
2023/02/02 02:27:36;;;;;;;7.72;1.27;;;;;;;9.23;66.10;100736.94;10257747;28;20055;-63
2023/02/02 02:33:04;;;;;;;3.92;0.77;;;;;;;9.31;65.76;100740.50;10257543;28;20134;-64
2023/02/02 02:38:15;;;;;;;;;;;;;;;9.36;65.75;100744.56;10260141;28;20071;-64
2023/02/02 02:43:24;;;;;;;12.70;1.45;;;;;;;9.25;65.88;100741.13;10254125;28;19962;-62
2023/02/02 02:48:27;;;;;;;5.70;0.98;;;;;;;9.21;66.18;100736.25;10255243;28;20141;-64
2023/02/02 02:53:29;;;;;;;6.28;0.70;;;;;;;9.12;66.32;100743.38;10259719;28;20077;-63
2023/02/02 02:58:34;;;;;;;7.70;1.00;;;;;;;9.15;66.39;100744.94;10260035;28;20162;-61
2023/02/02 03:03:46;;;;;;;5.65;1.27;;;;;;;9.19;66.72;100743.63;10245281;28;20082;-63
2023/02/02 03:08:54;;;;;;;9.55;2.10;;;;;;;9.11;67.09;100753.28;10256564;28;20093;-64
2023/02/02 03:13:55;;;;;;;;;;;;;;;9.11;67.19;100749.75;10254723;28;20111;-62
2023/02/02 03:18:57;;;;;;;7.72;1.52;;;;;;;9.15;66.83;100744.94;10257337;28;19957;-65
2023/02/02 03:23:58;;;;;;;8.13;1.40;;;;;;;9.11;67.38;100742.56;10258080;28;20073;-64
2023/02/02 03:29:00;;;;;;;6.68;1.13;;;;;;;9.10;67.60;100746.25;10265483;28;20125;-64
2023/02/02 03:34:02;;;;;;;10.00;1.17;;;;;;;9.15;67.71;100729.69;10263234;28;20113;-62
2023/02/02 03:39:03;;;;;;;5.25;0.93;;;;;;;9.15;67.71;100753.81;10260894;28;20105;-63
2023/02/02 03:44:04;;;;;;;5.93;1.40;;;;;;;8.95;68.21;100750.50;10265201;28;20046;-63
2023/02/02 03:49:06;;;;;;;5.47;1.02;;;;;;;8.86;69.05;100746.88;10263015;28;20050;-61
2023/02/02 03:54:07;;;;;;;6.38;1.20;;;;;;;8.85;68.83;100747.88;10264665;28;20149;-61
2023/02/02 03:59:08;;;;;;;3.70;1.23;;;;;;;8.89;68.95;100760.00;10263252;28;20142;-63
2023/02/02 04:04:10;;;;;;;5.65;0.98;;;;;;;8.91;69.08;100752.63;10260727;28;20214;-63
2023/02/02 04:09:11;;;;;;;6.82;0.68;;;;;;;8.93;68.62;100763.22;10261106;28;20066;-64
2023/02/02 04:14:12;;;;;;;3.38;0.40;;;;;;;8.90;69.16;100760.81;10263941;28;20187;-64
2023/02/02 04:19:14;;;;;;;3.00;0.47;;;;;;;8.97;68.91;100758.38;10262888;28;20069;-64
2023/02/02 04:24:16;;;;;;;4.22;0.73;;;;;;;9.08;68.46;100766.16;10257905;28;20098;-64
2023/02/02 04:29:17;;;;;;;2.25;0.60;;;;;;;9.14;68.01;100778.94;10262761;28;20166;-66
2023/02/02 04:34:18;;;;;;;3.03;1.30;;;;;;;9.20;67.72;100769.44;10258518;28;20061;-65
2023/02/02 04:39:19;;;;;;;7.75;1.80;;;;;;;9.26;67.66;100775.03;10262180;28;20582;-62
2023/02/02 04:44:21;;;;;;;4.30;0.57;;;;;;;9.33;67.25;100784.09;10263502;28;20174;-64
2023/02/02 04:49:22;;;;;;;3.42;0.98;;;;;;;9.38;67.26;100786.34;10264193;28;20130;-64
2023/02/02 04:54:23;;;;;;;5.47;0.90;;;;;;;9.56;66.75;100791.66;10258757;28;20137;-64
2023/02/02 04:59:27;;;;;;;3.72;0.95;;;;;;;9.64;66.86;100783.66;10261293;28;20129;-63
2023/02/02 05:04:28;;;;;;;6.45;0.70;;;;;;;9.47;67.28;100790.75;10261872;28;20115;-63
2023/02/02 05:09:30;;;;;;;5.07;1.23;;;;;;;9.65;66.72;100788.00;10258995;28;20062;-62
2023/02/02 05:14:31;;;;;;;4.63;0.90;;;;;;;9.53;67.07;100798.16;10259135;28;20138;-64
2023/02/02 05:19:32;;;;;;;2.72;0.50;;;;;;;9.57;66.70;100793.31;10263926;28;20130;-65
2023/02/02 05:24:34;;;;;;;4.07;0.77;;;;;;;9.57;66.97;100798.69;10256022;28;20566;-62
2023/02/02 05:29:35;;;;;;;6.38;0.93;;;;;;;9.59;66.71;100802.06;10259784;28;20105;-63
2023/02/02 05:34:36;;;;;;;2.88;0.60;;;;;;;9.52;66.97;100799.19;10261532;28;20078;-63
2023/02/02 05:39:38;;;;;;;1.75;0.77;;;;;;;9.56;67.02;100809.56;10261964;28;20066;-65
2023/02/02 05:44:39;;;;;;;5.53;1.15;;;;;;;9.62;66.70;100808.97;10259631;28;20054;-62
2023/02/02 05:49:41;;;;;;;2.80;0.70;;;;;;;9.59;66.77;100820.00;10255296;28;20130;-66
2023/02/02 05:54:43;;;;;;;4.57;0.60;;;;;;;9.49;67.01;100815.56;10252000;28;20573;-64
2023/02/02 05:59:44;;;;;;;3.75;0.40;;;;;;;9.59;66.55;100809.28;10259001;28;20134;-66
2023/02/02 06:04:45;;;;;;;2.10;0.50;;;;;;;9.60;66.53;100819.03;10257909;28;20134;-61
2023/02/02 06:09:47;;;;;;;7.45;1.20;;;;;;;9.46;66.94;100801.66;10257801;28;20757;-64
2023/02/02 06:14:48;;;;;;;2.55;0.65;;;;;;;9.44;66.79;100809.00;10257604;28;20047;-66
2023/02/02 06:19:49;;;;;;;2.05;0.50;;;;;;;9.35;67.42;100808.09;10252450;28;20133;-64
2023/02/02 06:24:52;;;;;;;3.22;0.68;;;;;;;9.38;67.29;100809.63;10256089;28;20141;-66
2023/02/02 06:29:53;;;;;;;6.10;0.80;;;;;;;9.42;67.26;100832.47;10256993;28;20500;-66
2023/02/02 06:34:55;;;;;;;1.83;0.70;;;;;;;9.40;67.67;100851.41;10258394;28;20147;-64
2023/02/02 06:39:56;;;;;;;4.93;1.08;;;;;;;9.36;67.92;100838.44;10252261;28;20078;-67
2023/02/02 06:44:57;;;;;;;6.03;0.70;;;;;;;9.47;67.40;100846.25;10252614;28;20121;-67
2023/02/02 06:49:59;;;;;;;3.75;1.67;;;;;;;9.52;67.43;100850.16;10256246;28;20240;-68
2023/02/02 06:55:00;;;;;;;4.72;0.73;;;;;;;9.47;67.59;100831.00;10256245;28;20065;-66
2023/02/02 07:31:43;;;;;;;3.20;0.90;;;;;;;9.58;67.81;100839.78;11501575;23;20057;-63
2023/02/02 07:36:45;;;;;;;5.95;1.60;;;;;;;9.55;67.74;100840.13;10259354;28;20106;-67
2023/02/02 07:41:46;;;;;;;6.45;2.03;;;;;;;9.59;67.74;100858.41;10268964;28;20491;-65
2023/02/02 07:46:47;;;;;;;5.35;0.80;;;;;;;9.67;67.39;100858.47;10274641;28;20059;-66
2023/02/02 07:51:49;;;;;;;5.85;1.45;;;;;;;9.56;67.57;100850.69;10260633;28;20058;-70
2023/02/02 07:56:50;;;;;;;6.57;0.98;;;;;;;9.53;67.83;100859.88;10250631;28;20051;-68
2023/02/02 08:01:52;;;;;;;5.90;1.20;;;;;;;9.47;68.07;100859.69;10236947;28;20043;-66
2023/02/02 08:06:53;;;;;;;4.28;1.10;;;;;;;9.56;67.86;100852.50;10241332;28;20058;-70
2023/02/02 08:12:00;;;;;;;4.50;1.55;;;;;;;9.52;68.07;100868.13;10237214;28;20130;-70
2023/02/02 08:17:02;;;;;;;5.17;1.20;;;;;;;9.60;67.85;100876.22;10280593;28;20047;-63
2023/02/02 08:22:03;;;;;;;2.85;0.90;;;;;;;9.65;67.46;100887.31;10296132;28;20074;-63
2023/02/02 08:27:06;;;;;;;5.35;0.98;;;;;;;9.73;67.49;100891.91;10295004;28;20039;-64
2023/02/02 08:32:08;;;;;;;4.57;1.20;;;;;;;9.72;67.61;100892.91;10281540;28;20111;-63
2023/02/02 08:37:09;;;;;;;4.47;1.17;;;;;;;9.69;67.67;100890.53;10297408;28;20031;-63
2023/02/02 08:42:11;;;;;;;2.65;0.70;;;;;;;9.79;67.42;100904.69;10297440;28;20031;-65
2023/02/02 08:47:12;;;;;;;5.20;1.13;;;;;;;9.83;67.19;100905.22;10295044;28;20062;-64
2023/02/02 08:52:13;;;;;;;4.43;0.60;;;;;;;9.83;67.01;100902.53;10293729;28;20074;-62
2023/02/02 08:57:16;;;;;;;2.95;0.75;;;;;;;9.78;67.34;100913.75;10275164;28;20114;-64
2023/02/02 09:02:17;;;;;;;6.22;0.85;;;;;;;9.84;67.14;100914.97;10277911;28;20051;-63
2023/02/02 09:07:18;;;;;;;4.43;0.80;;;;;;;9.93;66.88;100916.69;10282723;28;20039;-64
2023/02/02 09:33:29;;;;;;;5.47;0.50;;;;;;;9.99;65.99;100932.22;10651580;23;20045;-65
2023/02/02 09:38:30;;;;;;;2.78;0.60;;;;;;;10.09;65.79;100949.06;10268820;28;20052;-64
2023/02/02 09:43:43;;;;;;;1.33;0.47;;;;;;;10.07;65.76;100940.31;10270477;28;20031;-65
2023/02/02 10:37:15;;;;;;;2.28;0.40;;;;;;;10.28;65.43;101004.41;12411430;23;20121;-70
2023/02/02 10:42:38;;;;;;;2.08;0.40;;;;;;;10.30;65.21;100996.22;11102814;23;20108;-66
2023/02/02 10:59:10;;;;;;;2.70;0.40;;;;;;;10.44;65.17;101010.94;11051653;23;20123;-65
2023/02/02 11:09:39;;;;;;;3.78;0.30;;;;;;;10.31;65.11;101000.63;10314060;28;20051;-65
2023/02/02 11:15:00;;;;;;;4.53;0.30;;;;;;;10.30;65.04;101012.34;10298201;28;20042;-64
2023/02/02 11:20:21;;;;;;;3.17;0.40;;;;;;;10.39;65.36;101006.03;10296189;28;20165;-64
2023/02/02 11:25:31;;;;;;;2.80;0.47;;;;;;;10.47;65.43;101006.09;10314423;28;20031;-65
2023/02/02 11:30:35;;;;;;;1.33;0.30;;;;;;;10.36;65.39;101008.19;10299782;28;20051;-62
2023/02/02 11:35:52;;;;;;;1.95;0.20;;;;;;;10.34;65.78;101015.56;10300078;28;20055;-64
2023/02/02 11:41:02;;;;;;;1.20;0.30;;;;;;;10.29;65.98;101013.34;10302085;28;20071;-63
2023/02/02 11:46:12;;;;;;;1.48;0.30;;;;;;;10.19;66.27;101008.06;10300485;28;20051;-63
2023/02/02 11:51:22;;;;;;;1.23;0.30;;;;;;;10.22;66.77;101009.59;10290220;28;20147;-62
2023/02/02 11:56:25;;;;;;;2.55;0.30;;;;;;;10.26;66.47;101014.47;10268465;28;20047;-63
2023/02/02 12:01:33;;;;;;;0.40;0.20;;;;;;;10.27;66.41;100999.22;10263877;28;20166;-63
2023/02/02 12:06:37;;;;;;;1.45;0.30;;;;;;;10.30;66.23;101015.03;10259418;28;20055;-62
2023/02/02 12:11:49;;;;;;;0.80;0.40;;;;;;;10.31;66.33;101006.00;10264291;28;20047;-63
2023/02/02 12:16:59;;;;;;;1.13;0.30;;;;;;;10.25;66.34;101011.97;10261193;28;20058;-63
2023/02/02 12:22:24;;;;;;;1.45;0.30;;;;;;;10.39;65.82;101003.34;10262529;28;20043;-62
2023/02/02 12:27:54;;;;;;;1.10;0.30;;;;;;;10.49;65.54;101020.19;10265355;28;20047;-63
2023/02/02 12:33:33;;;;;;;1.75;0.43;;;;;;;10.43;65.57;101012.78;10264577;28;20039;-64
2023/02/02 12:39:13;;;;;;;2.90;0.35;;;;;;;10.35;66.25;101010.03;10265667;28;20062;-63
2023/02/02 12:44:51;;;;;;;0.52;0.20;;;;;;;10.21;66.90;101032.06;10247207;28;20040;-64
2023/02/02 12:50:22;;;;;;;0.40;0.20;;;;;;;10.25;66.93;101018.19;10181496;28;20047;-63
2023/02/02 12:55:47;;;;;;;1.90;0.50;;;;;;;10.19;67.00;101026.88;10271402;28;20263;-64
2023/02/02 13:01:06;;;;;;;2.88;0.70;;;;;;;10.16;67.14;101032.53;10265762;28;20102;-65
2023/02/02 13:06:32;;;;;;;2.95;0.75;;;;;;;10.25;66.84;101020.03;10260053;28;20099;-64
2023/02/02 13:11:49;;;;;;;4.50;0.85;;;;;;;10.39;66.77;101029.38;10256928;28;20127;-63
2023/02/02 13:16:55;;;;;;;3.90;1.00;;;;;;;10.51;66.43;101025.44;10254450;28;20059;-63
2023/02/02 13:22:01;;;;;;;4.63;1.40;;;;;;;10.54;66.16;101033.16;10260280;28;20062;-63
2023/02/02 13:27:06;;;;;;;3.25;0.60;;;;;;;10.52;65.89;101032.47;10268229;28;20049;-64
2023/02/02 13:32:16;;;;;;;4.32;0.77;;;;;;;10.77;65.56;101035.31;10262719;28;20078;-63
2023/02/02 13:37:26;;;;;;;3.35;0.60;;;;;;;10.80;65.51;101032.28;10254009;28;20055;-64
2023/02/02 13:42:42;;;;;;;6.00;0.60;;;;;;;10.75;65.29;101043.53;10251681;28;20056;-63
2023/02/02 13:47:54;;;;;;;4.15;0.60;;;;;;;10.81;65.10;101040.19;10255368;28;20281;-64
2023/02/02 13:53:22;;;;;;;4.43;0.77;;;;;;;10.88;65.17;101029.63;10247349;28;20043;-64
2023/02/02 13:58:41;;;;;;;3.42;0.60;;;;;;;10.91;64.99;101043.59;10255360;28;20062;-65
2023/02/02 14:03:51;;;;;;;1.70;0.55;;;;;;;10.93;64.74;101039.94;10247984;28;20047;-65
2023/02/02 14:08:57;;;;;;;5.38;0.70;;;;;;;11.03;64.57;101051.41;10253375;28;20059;-64
2023/02/02 14:19:34;;;;;;;4.88;1.25;;;;;;;11.04;63.74;101061.16;10240523;28;20043;-63
2023/02/02 14:24:45;;;;;;;2.53;0.63;;;;;;;11.17;63.24;101072.31;10238144;28;20111;-64
2023/02/02 14:29:53;;;;;;;2.50;1.08;;;;;;;11.09;63.09;101085.72;10241120;28;20053;-64
2023/02/02 14:34:55;;;;;;;4.40;0.52;;;;;;;11.14;62.77;101083.41;10246764;28;20040;-65
2023/02/02 14:40:07;;;;;;;4.47;0.70;;;;;;;11.19;62.89;101096.38;10248658;28;20047;-64
2023/02/02 14:45:11;;;;;;;3.67;0.60;;;;;;;11.17;62.40;101101.06;10241387;28;20055;-64
2023/02/02 14:50:23;;;;;;;2.70;0.60;;;;;;;11.23;61.85;101109.31;10244519;28;20048;-64
2023/02/02 14:55:26;;;;;;;3.65;0.73;;;;;;;11.15;61.78;101113.84;10241453;28;20067;-64
2023/02/02 15:00:32;;;;;;;2.45;0.80;;;;;;;11.19;62.10;101129.50;10222683;28;20055;-69
2023/02/02 15:05:37;;;;;;;1.10;0.40;;;;;;;11.25;62.29;101118.09;10216537;28;20134;-69
2023/02/02 15:10:52;;;;;;;4.15;0.70;;;;;;;11.45;62.28;101116.00;10221743;28;20047;-64
2023/02/02 15:16:12;;;;;;;2.05;0.50;;;;;;;11.30;63.18;101131.91;10239173;28;20051;-64
2023/02/02 15:21:20;;;;;;;3.55;0.50;;;;;;;11.48;63.15;101120.22;10247933;28;20055;-64
2023/02/02 15:26:31;;;;;;;3.95;0.50;;;;;;;11.20;63.69;101136.59;10259955;28;20508;-64
2023/02/02 15:31:39;;;;;;;3.00;0.60;;;;;;;11.20;64.25;101144.66;10259813;28;20062;-64
2023/02/02 15:36:45;;;;;;;2.08;0.75;;;;;;;11.08;64.29;101148.63;10257250;28;20115;-63
2023/02/02 15:41:48;;;;;;;3.30;1.00;;;;;;;11.17;64.35;101150.34;10253274;28;20055;-64
2023/02/02 15:46:50;;;;;;;2.50;0.45;;;;;;;11.08;64.51;101154.00;10242522;28;20051;-64
2023/02/02 15:51:53;;;;;;;3.20;0.40;;;;;;;11.04;64.82;101161.56;10238758;28;20095;-65
2023/02/02 15:56:57;;;;;;;4.60;0.30;;;;;;;11.08;64.39;101167.47;10269982;28;20086;-65
2023/02/02 16:02:08;;;;;;;1.35;0.40;;;;;;;11.13;64.40;101180.44;10272579;28;20031;-65
2023/02/02 16:07:16;;;;;;;2.55;0.30;;;;;;;11.07;64.33;101177.34;10261747;28;20048;-65
2023/02/02 16:12:20;;;;;;;1.73;0.47;;;;;;;11.18;64.49;101186.19;10241453;29;20051;-65
2023/02/02 16:17:27;;;;;;;6.82;1.20;;;;;;;11.20;63.94;101198.47;10260270;28;20065;-64
2023/02/02 16:22:30;;;;;;;4.28;0.68;;;;;;;11.26;63.63;101199.69;10268669;28;20075;-65
2023/02/02 16:27:31;;;;;;;3.08;0.60;;;;;;;11.40;63.13;101195.56;10262077;28;20059;-63
2023/02/02 16:32:36;;;;;;;1.50;0.40;;;;;;;11.25;63.52;101209.59;10246049;28;20066;-64
2023/02/02 16:37:37;;;;;;;3.15;0.40;;;;;;;11.19;63.11;101217.47;10249938;28;20118;-65
2023/02/02 16:42:38;;;;;;;4.70;0.98;;;;;;;11.14;62.82;101225.16;10226944;28;20075;-65
2023/02/02 16:47:40;;;;;;;3.03;0.68;;;;;;;11.23;62.83;101211.59;10218612;28;20142;-65
2023/02/02 16:52:52;;;;;;;1.52;0.30;;;;;;;11.24;62.63;101216.00;10219940;28;20057;-66
2023/02/02 16:57:53;;;;;;;5.03;0.90;;;;;;;11.22;62.25;101227.94;10223880;28;20071;-65
2023/02/02 17:03:05;;;;;;;3.35;0.55;;;;;;;11.23;62.32;101226.91;10223038;28;20472;-64
2023/02/02 17:08:07;;;;;;;1.52;0.40;;;;;;;11.32;61.82;101234.88;10223443;28;20083;-65
2023/02/02 17:13:31;;;;;;;1.92;0.40;;;;;;;11.34;61.54;101245.50;10222074;28;20090;-65
2023/02/02 17:18:32;;;;;;;1.17;0.70;;;;;;;11.37;61.42;101264.00;10218163;28;20075;-65
2023/02/02 17:23:35;;;;;;;2.90;0.40;;;;;;;11.34;61.40;101268.88;10219832;28;20079;-65
2023/02/02 17:28:39;;;;;;;0.95;0.30;;;;;;;11.32;61.66;101264.50;10225492;28;20115;-66
2023/02/02 17:33:42;;;;;;;7.38;1.42;;;;;;;11.37;61.13;101272.06;10226080;28;20077;-63
2023/02/02 17:38:43;;;;;;;0.80;0.40;;;;;;;11.25;61.32;101278.72;10224516;28;20134;-64
2023/02/02 17:43:45;;;;;;;1.85;0.35;;;;;;;11.21;61.76;101282.75;10227077;28;20130;-66
2023/02/02 17:48:46;;;;;;;1.60;0.93;;;;;;;11.23;61.35;101281.56;10223226;28;20086;-63
2023/02/02 17:53:47;;;;;;;4.47;0.47;;;;;;;11.23;61.59;101270.81;10218069;28;20043;-65
2023/02/02 17:58:49;;;;;;;3.42;0.40;;;;;;;11.18;61.49;101286.59;10220579;28;20130;-65
2023/02/02 18:03:51;;;;;;;2.78;0.40;;;;;;;11.16;61.59;101280.53;10223380;28;20195;-65
2023/02/02 18:08:52;;;;;;;2.67;0.40;;;;;;;11.14;61.40;101282.53;10221755;28;20074;-66
2023/02/02 18:13:53;;;;;;;2.53;0.40;;;;;;;11.21;61.07;101280.88;10212251;28;20146;-68
2023/02/02 18:18:57;;;;;;;1.92;0.77;;;;;;;11.11;61.32;101283.66;10202963;28;20055;-65
2023/02/02 18:23:58;;;;;;;5.05;0.57;;;;;;;11.17;60.60;101289.44;10226906;28;20467;-65
2023/02/02 18:28:59;;;;;;;1.55;0.30;;;;;;;11.11;60.88;101293.59;10222485;28;20051;-67
2023/02/02 18:34:01;;;;;;;2.85;0.32;;;;;;;11.10;60.47;101292.75;10208961;28;20052;-64
2023/02/02 18:39:02;;;;;;;0.68;0.30;;;;;;;11.19;60.47;101299.03;10222599;28;20154;-70
2023/02/02 18:44:04;;;;;;;4.38;0.90;;;;;;;11.15;60.16;101305.75;10216247;28;20087;-63
2023/02/02 18:49:05;;;;;;;3.42;1.65;;;;;;;11.21;60.39;101299.72;10215841;28;20078;-64
2023/02/02 18:54:09;;;;;;;4.43;0.50;;;;;;;11.15;60.23;101307.59;10222426;28;20078;-63
2023/02/02 18:59:10;;;;;;;2.22;0.60;;;;;;;11.13;59.89;101305.06;10231614;28;20083;-62
2023/02/02 19:04:11;;;;;;;4.55;0.50;;;;;;;11.16;59.92;101306.56;10239385;28;20395;-63
2023/02/02 19:09:15;;;;;;;2.70;0.57;;;;;;;11.18;59.66;101297.38;10231320;28;20263;-64
2023/02/02 19:14:19;;;;;;;1.55;0.40;;;;;;;11.10;59.68;101291.94;10235001;28;20430;-62
2023/02/02 19:19:32;;;;;;;3.30;0.43;;;;;;;11.08;59.96;101280.47;10244797;28;20055;-64
2023/02/02 19:24:38;;;;;;;3.70;0.45;;;;;;;11.13;59.85;101285.38;10245054;28;20051;-64
2023/02/02 19:29:39;;;;;;;4.13;0.30;;;;;;;11.02;59.80;101291.84;10234307;28;20051;-61
2023/02/02 19:34:40;;;;;;;6.78;0.60;;;;;;;10.95;59.63;101282.72;10227211;28;20055;-62
2023/02/02 19:39:43;;;;;;;2.35;0.38;;;;;;;10.98;59.79;101282.38;10232996;28;20227;-63
2023/02/02 19:44:44;;;;;;;3.42;0.40;;;;;;;10.93;60.05;101285.56;10220582;28;20051;-64
2023/02/02 19:49:46;;;;;;;3.55;0.35;;;;;;;10.88;59.72;101283.34;10232950;28;20047;-64
2023/02/02 19:54:48;;;;;;;6.53;1.35;;;;;;;10.85;59.66;101274.72;10230193;28;20039;-68
2023/02/02 19:59:51;;;;;;;2.88;0.40;;;;;;;10.86;59.58;101268.34;10220424;28;20058;-62
2023/02/02 20:05:18;;;;;;;2.88;0.43;;;;;;;10.83;59.75;101274.03;10208223;28;20059;-65
2023/02/02 20:10:23;;;;;;;4.05;0.70;;;;;;;10.82;60.11;101269.66;10223151;28;20089;-66
2023/02/02 20:15:35;;;;;;;2.08;0.30;;;;;;;10.80;60.03;101280.59;10224880;28;20069;-61
2023/02/02 20:20:38;;;;;;;0.55;0.35;;;;;;;10.82;59.98;101289.34;10219168;28;20127;-65
2023/02/02 20:25:43;;;;;;;2.97;0.77;;;;;;;10.79;60.23;101303.09;10206910;28;21064;-65
2023/02/02 20:30:44;;;;;;;3.17;1.17;;;;;;;10.85;60.17;101317.75;10223077;28;20479;-66
2023/02/02 20:35:45;;;;;;;1.85;0.43;;;;;;;10.85;60.04;101302.47;10223042;28;20047;-66
2023/02/02 20:40:47;;;;;;;4.88;0.50;;;;;;;10.91;60.19;101311.75;10219107;28;20075;-68
2023/02/02 20:45:49;;;;;;;4.25;0.45;;;;;;;10.80;60.23;101328.13;10220615;28;20051;-67
2023/02/02 20:50:50;;;;;;;5.07;0.60;;;;;;;10.84;60.37;101324.13;10224062;28;20047;-67
2023/02/02 20:55:56;;;;;;;4.60;0.90;;;;;;;10.78;60.53;101332.81;10224698;28;20078;-66
2023/02/02 21:00:59;;;;;;;2.10;0.57;;;;;;;10.84;60.58;101332.19;10226876;28;20039;-65
2023/02/02 21:06:00;;;;;;;2.58;1.08;;;;;;;10.79;60.52;101329.97;10226966;28;20062;-66
2023/02/02 21:11:01;;;;;;;4.97;0.50;;;;;;;10.84;60.69;101342.94;10225631;28;20606;-64
2023/02/02 21:16:03;;;;;;;4.70;0.80;;;;;;;10.79;60.91;101338.03;10217851;28;20070;-66
2023/02/02 21:21:05;;;;;;;3.03;0.90;;;;;;;10.84;60.85;101335.75;10222554;28;20066;-65
2023/02/02 21:26:06;;;;;;;5.35;0.52;;;;;;;10.85;60.73;101337.44;10221731;28;20055;-67
2023/02/02 21:31:09;;;;;;;5.20;0.80;;;;;;;10.83;60.87;101334.06;10215098;28;20164;-65
2023/02/02 21:36:26;;;;;;;3.38;0.80;;;;;;;10.81;60.82;101327.97;10218188;28;20055;-66
2023/02/02 21:41:31;;;;;;;5.85;0.68;;;;;;;10.70;61.17;101320.13;10226444;28;20074;-65
2023/02/02 21:46:36;;;;;;;7.20;0.90;;;;;;;10.77;61.12;101309.63;10232055;28;20102;-65
2023/02/02 21:51:38;;;;;;;4.78;1.50;;;;;;;10.81;61.09;101321.75;10224485;28;20087;-67
2023/02/02 21:56:40;;;;;;;6.75;1.08;;;;;;;10.70;61.22;101326.38;10219711;28;20567;-66
2023/02/02 22:01:43;;;;;;;6.70;1.45;;;;;;;10.67;61.18;101329.34;10216639;28;20443;-65
2023/02/02 22:06:49;;;;;;;5.93;0.93;;;;;;;10.65;61.30;101323.28;10226123;28;20646;-65
2023/02/02 22:12:00;;;;;;;6.53;1.40;;;;;;;10.63;61.04;101322.59;10225665;28;20044;-66
2023/02/02 22:17:17;;;;;;;3.88;0.90;;;;;;;10.54;61.87;101328.03;10228032;28;20054;-65
2023/02/02 22:22:25;;;;;;;9.00;1.47;;;;;;;10.55;61.68;101321.69;10223621;28;20134;-65
2023/02/02 22:27:40;;;;;;;4.00;0.80;;;;;;;10.47;61.80;101328.66;10224210;28;20130;-66
2023/02/02 22:32:41;;;;;;;3.63;0.93;;;;;;;10.49;61.96;101329.34;10224202;28;20060;-65
2023/02/02 22:37:42;;;;;;;5.22;0.82;;;;;;;10.49;61.76;101356.22;10225503;28;20486;-66
2023/02/02 22:42:44;;;;;;;9.60;1.20;;;;;;;10.48;62.06;101345.59;10221088;28;20055;-66
2023/02/02 22:47:46;;;;;;;4.47;0.60;;;;;;;10.47;62.39;101333.19;10218904;28;20082;-64
2023/02/02 22:52:48;;;;;;;4.65;1.13;;;;;;;10.45;62.30;101330.63;10218452;28;20055;-65
2023/02/02 22:57:49;;;;;;;3.60;0.60;;;;;;;10.39;62.51;101336.63;10220444;28;20098;-66
2023/02/02 23:02:52;;;;;;;6.63;1.50;;;;;;;10.40;62.72;101338.28;10218030;28;20048;-67
2023/02/02 23:07:54;;;;;;;5.90;1.00;;;;;;;10.41;62.60;101353.44;10219518;28;20062;-63
2023/02/02 23:12:57;;;;;;;4.32;0.77;;;;;;;10.40;63.01;101357.09;10219041;28;20832;-66
2023/02/02 23:17:59;;;;;;;5.88;1.13;;;;;;;10.37;63.16;101348.50;10218318;28;20079;-65
2023/02/02 23:23:00;;;;;;;6.00;1.10;;;;;;;10.40;63.20;101334.78;10220567;28;20446;-65
2023/02/02 23:28:01;;;;;;;6.75;0.90;;;;;;;10.27;63.47;101322.50;10219669;28;20052;-65
2023/02/02 23:33:03;;;;;;;6.75;1.95;;;;;;;10.23;63.56;101342.63;10210800;28;20609;-65
2023/02/02 23:38:04;;;;;;;7.57;1.00;;;;;;;10.22;63.53;101340.06;10221250;28;20579;-66
2023/02/02 23:43:06;;;;;;;4.18;0.85;;;;;;;10.15;63.72;101350.56;10224115;28;20051;-65
2023/02/02 23:48:08;;;;;;;3.58;0.80;;;;;;;10.13;64.10;101374.91;10211023;28;20099;-63
2023/02/02 23:53:10;;;;;;;3.00;0.80;;;;;;;10.09;64.00;101373.50;10226058;28;20598;-65
2023/02/02 23:58:12;;;;;;;6.32;1.65;;;;;;;10.04;64.23;101391.91;10227665;28;20407;-64
